Time;durP1;ratioP1;P1;durP2;ratioP2;P2;SDS_P1;SDS_P2;PMS_P1;PMS_P2;Temp;Humidity;BMP_temperature;BMP_pressure;BME280_temperature;BME280_humidity;BME280_pressure;Samples;Min_cycle;Max_cycle;Signal;HPM_P1;HPM_P2
2023/05/09 00:01:12;;;;;;;14.30;8.80;;;3.40;99.90;;;;;;5094880;28;20051;-78
2023/05/09 00:03:38;;;;;;;11.57;8.63;;;3.50;99.90;;;;;;5094813;28;20032;-78
2023/05/09 00:06:04;;;;;;;14.65;8.35;;;3.40;99.90;;;;;;5093439;28;20491;-78
2023/05/09 00:08:30;;;;;;;14.40;9.07;;;3.50;99.90;;;;;;5094797;28;20099;-78
2023/05/09 00:10:56;;;;;;;14.73;8.57;;;3.50;99.90;;;;;;5093792;28;20104;-78
2023/05/09 00:13:22;;;;;;;13.77;8.43;;;3.50;99.90;;;;;;5094149;28;20035;-78
2023/05/09 00:15:48;;;;;;;11.98;8.50;;;3.50;99.90;;;;;;5094541;28;20413;-77
2023/05/09 00:18:13;;;;;;;15.25;9.25;;;3.50;99.90;;;;;;5093540;28;20023;-78
2023/05/09 00:20:39;;;;;;;16.85;8.35;;;3.50;99.90;;;;;;5093231;28;20051;-77
2023/05/09 00:23:06;;;;;;;17.25;8.98;;;3.60;99.90;;;;;;5094384;28;20028;-78
2023/05/09 00:25:32;;;;;;;14.80;8.98;;;3.50;99.90;;;;;;5093016;28;20027;-77
2023/05/09 00:27:57;;;;;;;11.82;8.32;;;3.60;99.90;;;;;;5094345;28;20024;-77
2023/05/09 00:30:23;;;;;;;14.18;8.98;;;3.50;99.90;;;;;;5094298;28;20427;-77
2023/05/09 00:32:49;;;;;;;14.25;8.30;;;3.50;99.90;;;;;;5093939;28;20024;-77
2023/05/09 00:35:14;;;;;;;12.68;7.78;;;3.50;99.90;;;;;;5092891;28;20122;-77
2023/05/09 00:37:40;;;;;;;13.35;8.30;;;3.50;99.90;;;;;;5094048;28;20426;-78
2023/05/09 00:40:08;;;;;;;14.23;9.48;;;3.50;99.90;;;;;;5092767;28;20020;-78
2023/05/09 00:42:34;;;;;;;11.80;7.55;;;3.50;99.90;;;;;;5092819;28;20077;-77
2023/05/09 00:45:00;;;;;;;11.40;7.32;;;3.40;99.90;;;;;;5092784;28;20029;-77
2023/05/09 00:47:27;;;;;;;12.10;8.43;;;3.40;99.90;;;;;;5093339;28;20039;-77
2023/05/09 00:49:53;;;;;;;11.93;8.02;;;3.40;99.90;;;;;;5092671;28;20061;-77
2023/05/09 00:52:24;;;;;;;12.40;8.20;;;3.40;99.90;;;;;;5093636;28;20028;-77
2023/05/09 00:54:51;;;;;;;11.35;7.93;;;3.30;99.90;;;;;;5093821;28;20403;-77
2023/05/09 00:57:17;;;;;;;11.93;7.88;;;3.40;99.90;;;;;;5092473;28;20089;-77
2023/05/09 00:59:43;;;;;;;12.50;7.30;;;3.30;99.90;;;;;;5093693;28;20021;-77
2023/05/09 01:02:08;;;;;;;14.52;7.82;;;3.30;99.90;;;;;;5093555;28;20024;-77
2023/05/09 01:04:34;;;;;;;14.68;9.27;;;3.30;99.90;;;;;;5093572;28;20017;-77
2023/05/09 01:07:12;;;;;;;13.77;7.50;;;3.30;99.90;;;;;;5093525;28;20109;-78
2023/05/09 01:09:48;;;;;;;14.02;8.23;;;3.30;99.90;;;;;;5093624;28;20039;-77
2023/05/09 01:12:30;;;;;;;13.05;7.63;;;3.20;99.90;;;;;;5093590;28;20028;-77
2023/05/09 01:15:09;;;;;;;15.88;7.95;;;3.20;99.90;;;;;;5092293;28;20511;-77
2023/05/09 01:17:56;;;;;;;13.40;7.80;;;3.20;99.90;;;;;;5093551;28;20363;-77
2023/05/09 01:20:27;;;;;;;13.43;8.95;;;3.20;99.90;;;;;;5093601;28;20103;-77
2023/05/09 01:23:21;;;;;;;12.35;8.55;;;3.30;99.90;;;;;;5092006;28;20016;-77
2023/05/09 01:25:53;;;;;;;13.02;7.60;;;3.20;99.90;;;;;;5092158;28;20024;-77
2023/05/09 01:28:40;;;;;;;14.13;8.10;;;3.20;99.90;;;;;;5092032;28;20043;-78
2023/05/09 01:31:08;;;;;;;14.50;7.70;;;3.30;99.90;;;;;;5093421;28;20027;-77
2023/05/09 01:33:39;;;;;;;13.00;8.98;;;3.30;99.90;;;;;;5091853;28;20405;-77
2023/05/09 01:36:11;;;;;;;12.25;8.65;;;3.30;99.90;;;;;;5093248;28;20016;-77
2023/05/09 01:38:37;;;;;;;10.73;7.90;;;3.30;99.90;;;;;;5093354;28;20028;-77
2023/05/09 01:41:07;;;;;;;15.18;8.93;;;3.20;99.90;;;;;;5093248;28;20032;-77
2023/05/09 01:43:34;;;;;;;11.70;8.18;;;3.20;99.90;;;;;;5093254;28;20077;-77
2023/05/09 01:46:01;;;;;;;14.13;8.80;;;3.20;99.90;;;;;;5093181;28;20089;-77
2023/05/09 01:48:29;;;;;;;13.30;8.85;;;3.20;99.90;;;;;;5093302;28;20024;-77
2023/05/09 01:50:57;;;;;;;14.02;8.30;;;3.20;99.90;;;;;;5093059;28;20385;-76
2023/05/09 01:53:24;;;;;;;12.38;8.75;;;3.20;99.90;;;;;;5093126;28;20045;-77
2023/05/09 01:55:51;;;;;;;12.10;8.13;;;3.20;99.90;;;;;;5091965;28;20107;-78
2023/05/09 01:58:20;;;;;;;11.73;8.00;;;3.20;99.90;;;;;;5093169;28;20027;-78
2023/05/09 02:00:47;;;;;;;11.52;7.53;;;3.20;99.90;;;;;;5094458;28;20026;-78
2023/05/09 02:03:13;;;;;;;11.50;7.68;;;3.20;99.90;;;;;;5097133;28;20063;-77
2023/05/09 02:05:40;;;;;;;13.13;9.23;;;3.20;99.90;;;;;;5097071;28;20025;-77
2023/05/09 02:08:08;;;;;;;11.05;8.55;;;3.20;99.90;;;;;;5096951;28;20385;-78
2023/05/09 02:10:34;;;;;;;12.57;8.60;;;3.20;99.90;;;;;;5095785;28;20017;-78
2023/05/09 02:13:00;;;;;;;12.63;8.65;;;3.20;99.90;;;;;;5095581;28;20032;-79
2023/05/09 02:15:26;;;;;;;13.60;8.07;;;3.20;99.90;;;;;;5095704;28;20020;-76
2023/05/09 02:17:51;;;;;;;11.07;7.85;;;3.20;99.90;;;;;;5096796;28;20381;-76
2023/05/09 02:20:17;;;;;;;11.65;8.40;;;3.10;99.90;;;;;;5096950;28;20024;-78
2023/05/09 02:22:43;;;;;;;11.02;8.68;;;3.10;99.90;;;;;;5095506;28;20023;-78
2023/05/09 02:25:13;;;;;;;13.40;8.68;;;3.00;99.90;;;;;;5095467;28;20473;-78
2023/05/09 02:27:39;;;;;;;14.95;9.60;;;3.00;99.90;;;;;;5095913;28;20035;-76
2023/05/09 02:30:10;;;;;;;12.10;8.68;;;3.00;99.90;;;;;;5095428;28;20020;-78
2023/05/09 02:32:37;;;;;;;13.00;8.05;;;3.00;99.90;;;;;;5095104;28;20389;-78
2023/05/09 02:35:05;;;;;;;13.25;8.95;;;3.00;99.90;;;;;;5095346;28;20047;-77
2023/05/09 02:37:32;;;;;;;13.73;8.98;;;3.00;99.90;;;;;;5083075;28;20074;-77
2023/05/09 02:39:58;;;;;;;13.05;9.02;;;3.00;99.90;;;;;;5074922;28;20142;-78
2023/05/09 02:42:25;;;;;;;12.23;7.97;;;3.00;99.90;;;;;;5074774;28;20111;-78
2023/05/09 02:44:51;;;;;;;15.85;9.90;;;2.90;99.90;;;;;;5074774;28;20062;-78
2023/05/09 02:47:17;;;;;;;15.68;9.25;;;2.90;99.90;;;;;;5074577;28;20100;-78
2023/05/09 02:49:43;;;;;;;11.38;8.05;;;3.00;99.90;;;;;;5075957;28;20486;-78
2023/05/09 02:52:10;;;;;;;14.45;9.23;;;3.00;99.90;;;;;;5075946;28;20068;-77
2023/05/09 02:54:36;;;;;;;15.15;9.52;;;3.00;99.90;;;;;;5074586;28;20185;-77
2023/05/09 02:57:01;;;;;;;15.63;9.38;;;2.90;99.90;;;;;;5074462;28;20154;-78
2023/05/09 02:59:27;;;;;;;12.70;8.52;;;2.90;99.90;;;;;;5075837;28;20020;-76
2023/05/09 03:01:53;;;;;;;11.98;9.02;;;3.00;99.90;;;;;;5075748;28;20416;-76
2023/05/09 03:04:18;;;;;;;12.50;8.70;;;2.90;99.90;;;;;;5075735;28;20101;-77
2023/05/09 03:06:44;;;;;;;18.00;9.88;;;2.90;99.90;;;;;;5075580;28;20123;-77
2023/05/09 03:09:10;;;;;;;13.68;9.40;;;2.90;99.90;;;;;;5074335;28;20082;-77
2023/05/09 03:11:35;;;;;;;13.00;8.63;;;2.90;99.90;;;;;;5075064;28;20028;-76
2023/05/09 03:14:02;;;;;;;13.20;8.88;;;3.00;99.90;;;;;;5075505;28;20033;-77
2023/05/09 03:16:28;;;;;;;12.10;8.40;;;2.90;99.90;;;;;;5074234;28;20021;-77
2023/05/09 03:18:53;;;;;;;14.05;9.43;;;3.00;99.90;;;;;;5074118;28;20098;-77
2023/05/09 03:21:19;;;;;;;14.38;9.70;;;3.00;99.90;;;;;;5075587;28;20019;-77
2023/05/09 03:23:45;;;;;;;11.77;8.55;;;2.90;99.90;;;;;;5074032;28;20048;-77
2023/05/09 03:26:10;;;;;;;13.85;8.88;;;2.90;99.90;;;;;;5074008;28;20023;-77
2023/05/09 03:28:37;;;;;;;14.00;8.77;;;2.90;99.90;;;;;;5075259;28;20029;-77
2023/05/09 03:31:03;;;;;;;13.73;9.60;;;2.90;99.90;;;;;;5075300;28;20539;-77
2023/05/09 03:33:29;;;;;;;13.52;8.77;;;2.90;99.90;;;;;;5073556;28;20127;-77
2023/05/09 03:35:54;;;;;;;13.73;9.13;;;3.00;99.90;;;;;;5073819;28;20021;-77
2023/05/09 03:38:23;;;;;;;14.40;10.25;;;3.00;99.90;;;;;;5075224;28;20036;-78
2023/05/09 03:40:49;;;;;;;16.88;10.00;;;3.00;99.90;;;;;;5075078;28;20155;-78
2023/05/09 03:43:15;;;;;;;14.90;9.75;;;3.10;99.90;;;;;;5074853;28;20541;-77
2023/05/09 03:45:41;;;;;;;14.85;9.95;;;3.10;99.90;;;;;;5074879;28;20056;-78
2023/05/09 03:48:10;;;;;;;17.02;9.88;;;3.30;99.90;;;;;;5074880;28;20351;-78
2023/05/09 03:50:36;;;;;;;12.02;8.25;;;3.50;99.90;;;;;;5074863;28;20394;-79
2023/05/09 03:53:02;;;;;;;14.60;9.30;;;3.70;99.90;;;;;;5073245;28;20086;-77
2023/05/09 03:55:28;;;;;;;16.65;9.85;;;3.80;99.90;;;;;;5074752;28;20100;-77
2023/05/09 03:57:53;;;;;;;13.90;9.27;;;4.00;99.90;;;;;;5072864;28;20044;-79
2023/05/09 04:00:20;;;;;;;15.82;10.38;;;4.10;99.90;;;;;;5069651;28;20025;-78
2023/05/09 04:02:46;;;;;;;14.07;9.15;;;4.20;99.90;;;;;;5053959;28;20120;-79
2023/05/09 04:05:14;;;;;;;13.68;8.88;;;4.30;99.90;;;;;;5054474;28;20459;-79
2023/05/09 04:07:40;;;;;;;18.67;10.88;;;4.40;99.90;;;;;;5054105;28;20023;-79
2023/05/09 04:10:06;;;;;;;21.75;9.18;;;4.50;99.90;;;;;;5060858;28;20016;-79
2023/05/09 04:12:32;;;;;;;15.05;8.73;;;4.60;99.90;;;;;;5074056;28;20032;-79
2023/05/09 04:14:58;;;;;;;15.82;8.35;;;4.60;99.90;;;;;;5072954;28;20073;-79
2023/05/09 04:17:23;;;;;;;12.35;8.57;;;4.60;99.90;;;;;;5073878;28;20051;-78
2023/05/09 04:19:49;;;;;;;13.30;8.73;;;4.70;99.90;;;;;;5074096;28;20158;-78
2023/05/09 04:22:15;;;;;;;12.13;8.57;;;4.70;99.90;;;;;;5071869;28;20020;-78
2023/05/09 04:24:40;;;;;;;12.80;9.15;;;4.70;99.90;;;;;;5072714;28;20029;-78
2023/05/09 04:27:06;;;;;;;13.80;8.10;;;4.80;99.90;;;;;;5072369;28;20021;-78
2023/05/09 04:29:33;;;;;;;14.93;9.10;;;4.80;99.90;;;;;;5072708;28;20056;-79
2023/05/09 04:32:00;;;;;;;12.52;8.85;;;4.90;99.90;;;;;;5073816;28;20027;-79
2023/05/09 04:34:26;;;;;;;15.13;9.80;;;4.90;99.90;;;;;;5071859;28;20056;-79
2023/05/09 04:36:52;;;;;;;15.70;8.70;;;4.90;99.90;;;;;;5072553;28;20025;-78
2023/05/09 04:39:18;;;;;;;14.23;9.25;;;4.90;99.90;;;;;;5073713;28;20035;-79
2023/05/09 04:41:46;;;;;;;16.00;9.15;;;5.00;99.90;;;;;;5072280;28;20028;-79
2023/05/09 04:44:12;;;;;;;10.75;8.95;;;5.10;99.90;;;;;;5072379;28;20025;-79
2023/05/09 04:46:38;;;;;;;17.27;10.20;;;5.20;99.90;;;;;;5073589;28;20107;-79
2023/05/09 04:49:03;;;;;;;17.70;10.77;;;5.20;99.90;;;;;;5071496;28;20442;-80
2023/05/09 04:51:32;;;;;;;14.77;9.32;;;5.30;99.90;;;;;;5071339;28;20133;-79
2023/05/09 04:53:58;;;;;;;11.80;8.65;;;5.30;99.90;;;;;;5072404;28;20111;-79
2023/05/09 04:56:23;;;;;;;18.70;9.73;;;5.30;99.90;;;;;;5070823;28;20533;-79
2023/05/09 04:58:50;;;;;;;14.77;9.45;;;5.40;99.90;;;;;;5071905;28;20016;-79
2023/05/09 05:01:15;;;;;;;12.57;9.40;;;5.50;99.90;;;;;;5070663;28;20382;-79
2023/05/09 05:03:41;;;;;;;11.13;8.60;;;5.60;99.90;;;;;;5070604;28;20029;-79
2023/05/09 05:06:07;;;;;;;12.10;9.15;;;5.70;99.90;;;;;;5073165;28;20029;-79
2023/05/09 05:08:32;;;;;;;11.40;8.15;;;5.80;99.90;;;;;;5071738;28;20028;-78
2023/05/09 05:10:58;;;;;;;13.55;8.38;;;5.90;99.90;;;;;;5071604;28;20382;-79
2023/05/09 05:13:24;;;;;;;11.35;8.25;;;6.00;99.90;;;;;;5073309;28;20032;-78
2023/05/09 05:15:49;;;;;;;12.82;8.52;;;6.10;99.90;;;;;;5070977;28;20117;-82
2023/05/09 05:18:15;;;;;;;11.68;7.70;;;6.30;99.90;;;;;;5070614;28;20032;-80
2023/05/09 05:20:41;;;;;;;10.63;8.23;;;6.40;99.90;;;;;;5072947;28;20024;-79
2023/05/09 05:23:07;;;;;;;11.90;8.45;;;6.50;99.90;;;;;;5072570;28;20044;-78
2023/05/09 05:25:33;;;;;;;12.32;7.22;;;6.60;99.90;;;;;;5071697;28;20025;-78
2023/05/09 05:27:59;;;;;;;10.50;7.60;;;6.60;99.90;;;;;;5071720;28;20032;-79
2023/05/09 05:30:25;;;;;;;10.55;7.78;;;6.70;98.70;;;;;;5071487;28;20032;-79
2023/05/09 05:32:50;;;;;;;10.90;7.40;;;6.80;99.90;;;;;;5070273;28;20050;-79
2023/05/09 05:35:16;;;;;;;11.82;7.00;;;6.90;98.90;;;;;;5071950;28;20098;-78
2023/05/09 05:37:44;;;;;;;13.00;7.20;;;7.10;98.00;;;;;;5072951;28;20024;-79
2023/05/09 05:40:10;;;;;;;7.95;6.30;;;7.10;93.70;;;;;;5072705;28;20021;-78
2023/05/09 05:42:36;;;;;;;12.45;6.10;;;7.30;93.70;;;;;;5070782;28;20051;-78
2023/05/09 05:45:04;;;;;;;7.30;6.43;;;7.40;91.30;;;;;;5072816;28;20393;-79
2023/05/09 05:47:34;;;;;;;9.65;6.32;;;7.40;88.50;;;;;;5072787;28;20107;-79
2023/05/09 05:50:02;;;;;;;15.73;5.65;;;7.60;87.40;;;;;;5091725;28;20031;-79
2023/05/09 05:52:28;;;;;;;11.07;6.03;;;7.60;87.60;;;;;;5093002;28;20595;-79
2023/05/09 05:54:53;;;;;;;8.00;5.88;;;7.80;86.20;;;;;;5092795;28;20126;-79
2023/05/09 05:57:19;;;;;;;8.90;5.40;;;7.90;83.50;;;;;;5091522;28;20032;-79
2023/05/09 05:59:49;;;;;;;11.95;5.70;;;7.90;81.10;;;;;;5092939;28;20028;-80
2023/05/09 06:02:16;;;;;;;8.30;5.50;;;7.90;81.00;;;;;;5079397;28;21719;-79
2023/05/09 06:04:42;;;;;;;11.27;5.68;;;8.00;81.30;;;;;;5069703;28;20048;-78
2023/05/09 06:07:08;;;;;;;6.72;5.22;;;8.10;81.50;;;;;;5069288;28;20089;-78
2023/05/09 06:09:34;;;;;;;16.88;7.65;;;8.20;82.20;;;;;;5066250;28;20056;-79
2023/05/09 06:11:59;;;;;;;8.13;5.50;;;8.40;81.90;;;;;;5067962;28;20036;-79
2023/05/09 06:14:25;;;;;;;9.68;5.82;;;8.50;80.10;;;;;;5069521;28;20072;-79
2023/05/09 06:16:50;;;;;;;10.65;6.03;;;8.50;78.80;;;;;;5067051;28;20036;-79
2023/05/09 06:19:16;;;;;;;9.07;6.03;;;8.50;77.20;;;;;;5069082;28;20036;-80
2023/05/09 06:21:42;;;;;;;15.95;6.07;;;8.60;77.70;;;;;;5069515;28;20039;-79
2023/05/09 06:24:08;;;;;;;7.28;5.85;;;8.60;77.70;;;;;;5067691;28;20017;-79
2023/05/09 06:26:34;;;;;;;9.80;5.82;;;8.70;77.20;;;;;;5069743;28;20075;-80
2023/05/09 06:29:00;;;;;;;9.05;6.13;;;8.90;77.70;;;;;;5067019;28;20032;-79
2023/05/09 06:31:25;;;;;;;8.70;6.13;;;9.00;77.90;;;;;;5068016;28;20017;-79
2023/05/09 06:33:51;;;;;;;8.70;5.82;;;9.20;76.90;;;;;;5071224;28;20058;-80
2023/05/09 06:36:17;;;;;;;9.82;5.70;;;9.30;76.20;;;;;;5072607;28;20027;-79
2023/05/09 06:38:42;;;;;;;11.43;5.95;;;9.10;74.10;;;;;;5069428;28;20035;-79
2023/05/09 06:41:08;;;;;;;8.07;5.78;;;9.20;74.20;;;;;;5069292;28;20035;-80
2023/05/09 06:43:34;;;;;;;8.68;5.32;;;9.30;74.10;;;;;;5070576;28;20432;-79
2023/05/09 06:45:59;;;;;;;13.10;5.72;;;9.30;73.90;;;;;;5071960;28;20036;-79
2023/05/09 06:48:25;;;;;;;7.38;5.07;;;9.30;72.80;;;;;;5074186;28;20029;-80
2023/05/09 06:50:51;;;;;;;8.00;5.63;;;9.30;72.90;;;;;;5072877;28;20059;-80
2023/05/09 06:53:17;;;;;;;8.23;5.80;;;9.60;73.10;;;;;;5072904;28;20064;-80
2023/05/09 06:55:42;;;;;;;9.88;5.35;;;9.70;72.10;;;;;;5073984;28;20025;-79
2023/05/09 06:58:08;;;;;;;13.30;5.85;;;9.60;70.80;;;;;;5075050;28;20024;-80
2023/05/09 07:00:34;;;;;;;10.45;5.20;;;9.70;72.00;;;;;;5074272;28;20020;-79
2023/05/09 07:03:00;;;;;;;8.60;5.47;;;9.80;71.10;;;;;;5074821;28;20028;-79
2023/05/09 07:05:25;;;;;;;8.85;5.47;;;9.80;70.50;;;;;;5072457;28;20016;-79
2023/05/09 07:07:53;;;;;;;9.48;5.75;;;9.90;70.40;;;;;;5074186;28;20032;-79
2023/05/09 07:10:20;;;;;;;7.80;5.35;;;9.80;69.70;;;;;;5075268;28;20042;-80
2023/05/09 07:12:46;;;;;;;10.00;5.47;;;10.00;69.00;;;;;;5075411;28;20040;-80
2023/05/09 07:15:12;;;;;;;15.82;6.70;;;10.00;68.80;;;;;;5073825;28;20028;-80
2023/05/09 07:17:37;;;;;;;9.45;5.95;;;10.10;69.00;;;;;;5072928;28;20493;-79
2023/05/09 07:20:05;;;;;;;8.65;5.40;;;10.20;68.80;;;;;;5073900;28;20032;-79
2023/05/09 07:22:31;;;;;;;7.63;5.50;;;10.30;67.90;;;;;;5071878;28;20020;-80
2023/05/09 07:24:57;;;;;;;10.07;5.60;;;10.20;67.30;;;;;;5073662;28;20031;-80
2023/05/09 07:27:22;;;;;;;13.00;5.90;;;10.30;67.50;;;;;;5073497;28;20028;-80
2023/05/09 07:29:51;;;;;;;11.65;6.38;;;10.40;67.10;;;;;;5073571;28;20126;-80
2023/05/09 07:32:19;;;;;;;12.65;5.70;;;10.50;65.80;;;;;;5073546;28;20033;-80
2023/05/09 07:34:45;;;;;;;10.43;5.97;;;10.50;65.60;;;;;;5073816;28;20056;-80
2023/05/09 07:37:10;;;;;;;15.35;5.80;;;10.70;65.40;;;;;;5075232;28;20027;-80
2023/05/09 07:39:36;;;;;;;9.32;5.65;;;10.70;64.70;;;;;;5075138;28;20433;-80
2023/05/09 07:42:02;;;;;;;10.20;5.82;;;10.80;63.60;;;;;;5073762;28;20512;-80
2023/05/09 07:44:28;;;;;;;15.60;5.95;;;10.90;64.00;;;;;;5073842;28;20063;-80
2023/05/09 07:46:58;;;;;;;17.08;6.75;;;11.00;64.10;;;;;;5075017;28;20048;-80
2023/05/09 07:49:24;;;;;;;12.13;6.10;;;11.00;62.80;;;;;;5075034;28;20355;-80
2023/05/09 07:51:50;;;;;;;10.02;6.07;;;11.10;63.30;;;;;;5073722;28;20078;-80
2023/05/09 07:54:15;;;;;;;15.77;5.30;;;11.20;63.40;;;;;;5073362;28;20496;-80
2023/05/09 07:56:41;;;;;;;14.00;5.90;;;11.00;61.90;;;;;;5074806;28;20485;-80
2023/05/09 07:59:07;;;;;;;14.32;5.47;;;11.20;63.20;;;;;;5073454;28;20027;-80
2023/05/09 08:01:32;;;;;;;17.35;5.97;;;11.40;62.40;;;;;;5074592;28;20024;-79
2023/05/09 08:03:58;;;;;;;10.18;4.55;;;11.50;62.20;;;;;;5074609;28;20028;-80
2023/05/09 08:06:25;;;;;;;8.60;4.80;;;11.50;61.50;;;;;;5074627;28;20487;-79
2023/05/09 08:08:50;;;;;;;7.53;4.30;;;11.60;60.90;;;;;;5074330;28;20103;-79
2023/05/09 08:11:16;;;;;;;5.47;4.30;;;11.40;59.30;;;;;;5074641;28;20435;-79
2023/05/09 08:13:42;;;;;;;9.77;5.00;;;11.40;59.50;;;;;;5074399;28;20039;-79
2023/05/09 08:16:07;;;;;;;7.05;4.53;;;11.40;59.60;;;;;;5074341;28;20032;-80
2023/05/09 08:18:33;;;;;;;7.90;4.15;;;11.30;60.50;;;;;;5073138;28;20033;-79
2023/05/09 08:20:59;;;;;;;6.93;4.40;;;11.50;60.00;;;;;;5074409;28;20028;-79
2023/05/09 08:23:25;;;;;;;6.95;4.10;;;11.50;59.80;;;;;;5072945;28;20020;-79
2023/05/09 08:25:55;;;;;;;7.22;4.18;;;11.70;60.70;;;;;;5072890;28;20492;-79
2023/05/09 08:28:22;;;;;;;8.07;4.82;;;11.90;59.90;;;;;;5074314;28;20032;-80
2023/05/09 08:30:49;;;;;;;8.27;4.53;;;11.90;59.60;;;;;;5074149;28;20024;-80
2023/05/09 08:33:15;;;;;;;8.88;4.90;;;11.70;58.50;;;;;;5073795;28;20112;-80
2023/05/09 08:35:41;;;;;;;6.13;4.50;;;11.70;58.90;;;;;;5074066;28;20072;-80
2023/05/09 08:38:06;;;;;;;5.97;4.43;;;11.90;58.50;;;;;;5073744;28;20082;-80
2023/05/09 08:40:36;;;;;;;5.88;4.57;;;11.80;58.80;;;;;;5074025;28;20016;-79
2023/05/09 08:43:04;;;;;;;8.75;4.70;;;12.00;59.20;;;;;;5073908;28;20017;-80
2023/05/09 08:45:46;;;;;;;5.95;5.07;;;12.00;59.70;;;;;;5073949;28;20020;-80
2023/05/09 08:48:14;;;;;;;6.28;4.50;;;12.10;59.80;;;;;;5073819;28;20494;-80
2023/05/09 08:50:40;;;;;;;7.60;4.45;;;11.80;59.10;;;;;;5072577;28;20055;-79
2023/05/09 08:53:06;;;;;;;9.07;5.47;;;12.00;60.30;;;;;;5073637;28;20028;-79
2023/05/09 08:55:32;;;;;;;7.05;4.63;;;12.10;61.00;;;;;;5073718;28;20021;-80
2023/05/09 08:57:58;;;;;;;8.05;5.97;;;11.90;60.60;;;;;;5072349;28;20031;-79
2023/05/09 09:00:25;;;;;;;9.13;5.70;;;12.00;60.70;;;;;;5072374;28;20020;-80
2023/05/09 09:02:52;;;;;;;7.40;4.90;;;12.10;61.30;;;;;;5093081;28;20122;-80
2023/05/09 09:05:18;;;;;;;9.82;5.15;;;12.20;61.30;;;;;;5093860;28;20028;-79
2023/05/09 09:07:45;;;;;;;11.48;5.50;;;12.30;59.70;;;;;;5093707;28;20051;-79
2023/05/09 09:10:12;;;;;;;7.30;5.07;;;12.50;60.80;;;;;;5092253;28;20465;-79
2023/05/09 09:12:38;;;;;;;7.07;4.60;;;12.80;60.90;;;;;;5092357;28;20028;-79
2023/05/09 09:15:06;;;;;;;6.00;4.60;;;12.90;57.80;;;;;;5093672;28;20090;-79
2023/05/09 09:17:34;;;;;;;6.35;4.78;;;13.00;57.40;;;;;;5092436;28;20118;-79
2023/05/09 09:20:04;;;;;;;6.90;4.32;;;13.00;57.80;;;;;;5093559;28;20054;-79
2023/05/09 09:22:34;;;;;;;28.50;6.68;;;12.80;57.20;;;;;;5093505;28;20032;-80
2023/05/09 09:25:00;;;;;;;7.03;4.53;;;12.80;57.10;;;;;;5092375;28;20115;-79
2023/05/09 09:27:26;;;;;;;13.32;4.63;;;12.90;56.40;;;;;;5092216;28;20446;-80
2023/05/09 09:29:52;;;;;;;7.45;3.88;;;12.70;56.20;;;;;;5092291;28;20069;-79
2023/05/09 09:32:18;;;;;;;8.13;4.18;;;12.60;56.10;;;;;;5092159;28;20019;-79
2023/05/09 09:34:48;;;;;;;5.15;4.05;;;12.80;56.60;;;;;;5093330;28;20044;-79
2023/05/09 09:37:22;;;;;;;5.30;4.07;;;12.80;56.00;;;;;;5092213;28;20381;-79
2023/05/09 09:39:54;;;;;;;5.60;4.70;;;13.00;56.30;;;;;;5092219;28;20024;-79
2023/05/09 09:42:22;;;;;;;7.32;4.45;;;13.10;54.80;;;;;;5092034;28;20481;-79
2023/05/09 09:45:07;;;;;;;8.65;4.80;;;13.00;55.60;;;;;;5093310;28;20024;-80
2023/05/09 09:47:33;;;;;;;7.88;4.07;;;13.00;56.70;;;;;;5091903;28;20024;-79
2023/05/09 09:50:09;;;;;;;4.40;3.95;;;13.00;55.40;;;;;;5091958;28;20026;-79
2023/05/09 09:52:35;;;;;;;7.10;4.40;;;13.30;56.40;;;;;;5093263;28;20028;-79
2023/05/09 09:55:01;;;;;;;6.10;4.40;;;13.30;55.40;;;;;;5093188;28;20033;-80
2023/05/09 09:57:37;;;;;;;5.97;3.97;;;13.50;55.30;;;;;;5091985;28;20024;-79
2023/05/09 10:00:06;;;;;;;13.48;5.75;;;13.20;54.80;;;;;;5092209;28;20022;-79
2023/05/09 10:02:32;;;;;;;8.05;4.88;;;13.30;55.80;;;;;;5093224;28;20024;-79
2023/05/09 10:05:07;;;;;;;5.40;4.35;;;13.30;55.60;;;;;;5091960;28;20031;-79
2023/05/09 10:07:34;;;;;;;8.10;4.30;;;13.30;55.10;;;;;;5091887;28;20024;-79
2023/05/09 10:10:04;;;;;;;5.88;4.32;;;13.40;55.20;;;;;;5087211;28;20017;-79
2023/05/09 10:12:33;;;;;;;9.32;4.55;;;13.40;55.60;;;;;;5071615;28;20355;-80
2023/05/09 10:15:00;;;;;;;6.20;3.85;;;13.20;55.40;;;;;;5071539;28;20037;-79
2023/05/09 10:17:29;;;;;;;4.50;3.58;;;13.20;55.20;;;;;;5072756;28;20494;-80
2023/05/09 10:19:56;;;;;;;5.68;4.35;;;13.20;55.10;;;;;;5071558;28;20489;-80
2023/05/09 10:22:23;;;;;;;7.13;4.10;;;13.10;55.40;;;;;;5076281;28;20020;-79
2023/05/09 10:25:07;;;;;;;6.72;3.78;;;13.10;55.20;;;;;;5075312;28;20020;-79
2023/05/09 10:27:36;;;;;;;4.47;3.35;;;13.40;55.50;;;;;;5085239;28;20032;-79
2023/05/09 10:30:06;;;;;;;9.55;3.40;;;13.60;54.90;;;;;;5095007;28;20496;-79
2023/05/09 10:32:50;;;;;;;3.55;3.22;;;13.70;54.40;;;;;;5091156;28;20047;-79
2023/05/09 10:35:18;;;;;;;4.32;3.55;;;13.60;53.20;;;;;;5075270;28;20064;-79
2023/05/09 10:37:47;;;;;;;4.88;3.95;;;13.50;53.80;;;;;;5073566;28;20105;-78
2023/05/09 10:40:14;;;;;;;5.85;3.70;;;13.80;54.50;;;;;;5093348;28;20024;-79
2023/05/09 10:42:43;;;;;;;5.05;2.95;;;14.00;52.70;;;;;;5090895;28;20131;-79
2023/05/09 10:45:12;;;;;;;3.72;3.15;;;14.10;52.90;;;;;;5072029;28;20090;-79
2023/05/09 10:47:43;;;;;;;8.10;3.42;;;14.00;52.50;;;;;;5073469;28;20037;-79
2023/05/09 10:50:11;;;;;;;6.13;3.78;;;14.00;52.40;;;;;;5072442;28;20031;-79
2023/05/09 10:53:12;;;;;;;5.75;3.33;;;13.70;52.00;;;;;;5071040;28;20033;-78
2023/05/09 10:56:00;;;;;;;3.90;2.78;;;13.90;53.00;;;;;;5071455;28;20037;-78
2023/05/09 10:58:35;;;;;;;7.10;3.55;;;14.00;52.00;;;;;;5072310;28;20249;-78
2023/05/09 11:01:04;;;;;;;7.60;2.97;;;14.00;52.00;;;;;;5070949;28;20017;-78
2023/05/09 11:03:56;;;;;;;6.20;2.67;;;14.30;52.70;;;;;;5069188;28;20044;-78
2023/05/09 11:06:40;;;;;;;4.22;2.65;;;14.40;50.50;;;;;;5070271;28;20028;-79
2023/05/09 11:09:28;;;;;;;3.97;2.95;;;14.40;50.50;;;;;;5059561;28;20117;-79
2023/05/09 11:12:09;;;;;;;2.97;2.67;;;14.60;51.10;;;;;;5074344;28;20037;-80
2023/05/09 11:14:34;;;;;;;4.85;2.53;;;14.40;50.60;;;;;;5073395;28;20029;-80
2023/05/09 11:17:05;;;;;;;7.32;3.58;;;14.40;50.20;;;;;;5073154;28;20374;-79
2023/05/09 11:19:46;;;;;;;4.35;3.90;;;14.40;50.30;;;;;;5075467;28;20485;-78
2023/05/09 11:22:17;;;;;;;4.55;2.85;;;14.20;49.90;;;;;;5075450;28;20059;-78
2023/05/09 11:24:47;;;;;;;3.97;3.10;;;14.00;51.50;;;;;;5075644;28;20048;-78
2023/05/09 11:27:24;;;;;;;5.40;2.70;;;13.90;51.40;;;;;;5075175;28;20059;-78
2023/05/09 11:29:54;;;;;;;8.23;3.22;;;13.90;51.60;;;;;;5074129;28;20016;-79
2023/05/09 11:32:25;;;;;;;5.72;2.80;;;14.10;50.80;;;;;;5074885;28;20025;-79
2023/05/09 11:34:51;;;;;;;4.50;3.35;;;14.30;51.60;;;;;;5073801;28;20050;-79
2023/05/09 11:37:18;;;;;;;4.43;2.70;;;14.40;51.30;;;;;;5073903;28;20081;-80
2023/05/09 11:40:03;;;;;;;3.60;2.60;;;14.30;50.80;;;;;;5074006;28;20543;-78
2023/05/09 11:42:30;;;;;;;6.57;3.17;;;14.30;51.10;;;;;;5075181;28;20020;-78
2023/05/09 11:44:57;;;;;;;3.42;2.90;;;14.30;50.40;;;;;;5075129;28;20061;-79
2023/05/09 11:47:23;;;;;;;3.72;3.33;;;14.30;49.80;;;;;;5074204;28;20024;-78
2023/05/09 11:49:50;;;;;;;5.53;3.22;;;14.30;50.00;;;;;;5073765;28;20108;-78
2023/05/09 11:52:18;;;;;;;6.35;3.05;;;14.20;49.10;;;;;;5073097;28;20186;-77
2023/05/09 11:54:43;;;;;;;4.57;2.60;;;14.30;49.30;;;;;;5073869;28;20119;-77
2023/05/09 11:57:09;;;;;;;3.55;2.40;;;14.50;49.00;;;;;;5074025;28;20104;-80
2023/05/09 11:59:37;;;;;;;3.90;2.40;;;14.50;49.00;;;;;;5074538;28;20024;-79
2023/05/09 12:02:06;;;;;;;4.65;3.00;;;14.60;48.10;;;;;;5074355;28;20206;-79
2023/05/09 12:04:32;;;;;;;6.97;3.03;;;14.60;48.00;;;;;;5073082;28;20070;-79
2023/05/09 12:06:59;;;;;;;5.70;2.67;;;14.60;47.10;;;;;;5074267;28;20025;-79
2023/05/09 12:09:37;;;;;;;4.47;2.60;;;14.70;46.90;;;;;;5074440;28;20025;-79
2023/05/09 12:12:12;;;;;;;2.50;2.30;;;15.00;47.00;;;;;;5074359;28;20032;-79
2023/05/09 12:14:39;;;;;;;2.60;2.40;;;15.20;47.40;;;;;;5071807;28;20071;-79
2023/05/09 12:17:08;;;;;;;3.50;2.63;;;15.10;46.30;;;;;;5072665;28;20021;-79
2023/05/09 12:19:34;;;;;;;4.57;3.55;;;15.20;46.70;;;;;;5071291;28;20016;-79
2023/05/09 12:22:02;;;;;;;5.78;2.78;;;15.10;46.90;;;;;;5074110;28;20044;-78
2023/05/09 12:24:29;;;;;;;6.57;3.03;;;14.80;46.40;;;;;;5072309;28;20090;-78
2023/05/09 12:26:56;;;;;;;3.50;3.00;;;14.90;47.80;;;;;;5072541;28;20052;-78
2023/05/09 12:29:23;;;;;;;3.13;2.13;;;14.80;47.50;;;;;;5071343;28;20025;-78
2023/05/09 12:31:49;;;;;;;4.40;2.67;;;15.00;48.20;;;;;;5073114;28;20020;-78
2023/05/09 12:34:15;;;;;;;3.72;2.33;;;15.00;47.40;;;;;;5071495;28;20056;-79
2023/05/09 12:36:49;;;;;;;4.53;2.25;;;15.00;47.10;;;;;;5073391;28;20390;-80
2023/05/09 12:39:17;;;;;;;6.28;3.10;;;15.10;46.90;;;;;;5072490;28;20032;-80
2023/05/09 12:41:49;;;;;;;4.63;2.38;;;15.10;47.00;;;;;;5070380;28;20032;-80
2023/05/09 12:44:24;;;;;;;6.22;2.90;;;15.10;47.70;;;;;;5068610;28;20059;-78
2023/05/09 12:47:01;;;;;;;3.33;2.58;;;15.00;47.00;;;;;;5070830;28;20130;-80
2023/05/09 12:49:27;;;;;;;5.65;2.53;;;15.00;47.90;;;;;;5072273;28;20053;-80
2023/05/09 12:51:55;;;;;;;6.30;2.75;;;14.90;46.10;;;;;;5071936;28;20111;-80